WEATHER DATA

YESTERDAY
Time Temp. Dewp. Hum. Wind dir Wind speed Wind gust Bar.
00:00 -0.2 -4 73 319 0.3 1.1 1023.9
00:11 -0.6 -4.4 73 270 0.3 0.8 1024
00:21 -0.9 -4.6 73 270 0.3 1.1 1024
00:36 -1.3 -4.9 74 270 0.3 0.8 1024.1
00:47 -1.5 -5.1 74 308 0.3 0.8 1024.1
00:57 -1.7 -5.3 74 270 0.3 0.8 1024.3
01:07 -1.9 -5.5 74 0 0.8 1024.1
01:17 -2 -5.6 74 270 0.3 0.8 1024.2
01:27 -2.1 -5.7 74 315 0.3 0.8 1024.2
01:37 -2.2 -5.7 74 270 0.3 0.8 1024.3
01:47 -2.4 -5.9 74 315 0.3 0.8 1024.3
01:58 -2.6 -6.1 74 308 0.3 0.8 1024.5
02:08 -2.6 -6.1 74 270 0.3 0.8 1024.6
02:18 -2.7 -6.2 74 270 0.3 1.1 1024.6
02:28 -2.8 -6.3 74 303 0.3 0.8 1024.7
02:39 -2.8 -6.3 74 315 0.3 0.8 1024.6
02:49 -2.9 -6.4 74 270 0.3 0.8 1024.6
02:58 -3 -6.5 74 335 0.3 0.8 1024.8
03:09 -3 -6.5 74 315 0.3 0.8 1025
03:19 -3.1 -6.6 74 270 0.3 0.8 1024.9
03:30 -3.1 -6.6 74 0 0.3 1024.9
03:40 -3.2 -6.7 74 329 0.3 0.8 1025.1
03:50 -3.2 -6.7 74 270 0.3 0.8 1025.3
04:16 -3.3 -6.8 74 309 0.3 0.8 1025.5
04:26 -3.4 -6.9 74 270 0.3 0.8 1025.4
04:36 -3.4 -6.9 74 270 0.3 0.8 1025.5
04:46 -3.4 -6.9 74 0 0.8 1025.6
04:57 -3.4 -6.9 74 270 0.3 0.8 1025.9
05:03 -3.4 -6.9 74 270 0.3 0.8 1025.7
05:18 -3.3 -6.8 74 0 0.8 1025.7
05:28 -3.3 -6.8 74 315 0.3 0.8 1025.7
05:38 -3.1 -6.6 74 0 0.3 1026
05:48 -2.8 -6.3 74 135 0.3 0.8 1026
05:59 -2.5 -6 74 0 0.8 1026
06:09 -2.1 -5.7 74 90 0.3 0.8 1026
06:19 -1.8 -5.4 74 0 0.8 1026.2
06:29 -1.6 -5.2 74 0 0.8 1026.3
06:40 -1.3 -4.9 74 0 0.8 1026.3
06:49 -1 -4.6 74 315 0.3 0.8 1026.3
06:59 -0.8 -4.4 74 90 0.3 0.8 1026.4
07:10 -0.6 -4.2 74 0 0.3 1026.6
07:20 -0.5 -4.1 74 0 0.3 1026.5
07:30 -0.3 -3.9 74 0 0.3 1026.6
07:40 -0.1 -3.7 74 0 0.3 1026.6
07:50 0 -3.6 74 270 0.3 0.8 1026.6
08:01 0.2 -3.4 74 0 0.8 1026.8
08:11 0.4 -3.3 74 0 0.3 1027
08:21 0.5 -3.2 74 0 0.3 1027.1
08:32 0.6 -3.1 74 0 0.8 1027.2
08:42 0.7 -3 74 0 0.8 1027.2
08:52 0.8 -2.9 74 0 0.8 1027.4
09:02 1 -2.7 74 0 0.8 1027.4
09:12 1.1 -2.8 73 270 0.3 0.8 1027.4
09:22 1.3 -2.5 74 0 0.8 1027.4
09:32 1.4 -2.6 73 0 0.8 1027.5
09:43 1.6 -2.4 73 0 0.8 1027.6
09:53 1.7 -2.3 73 329 0.3 0.8 1027.8
10:03 1.8 -2.2 73 0 0.8 1027.8
10:13 1.9 -2.1 73 0 0.8 1028
10:23 2 -2.1 73 0 0.8 1028
10:34 2.1 -2 73 270 0.3 0.8 1028.1
10:39 2.2 -1.9 73 0 0.8 1028
10:49 2.2 -1.9 73 0 0.3 1027.9
10:59 2.3 -1.8 73 0 0.8 1027.8
11:09 2.4 -1.7 73 270 0.3 1.1 1027.7
11:19 2.5 -1.6 73 0 0.8 1027.8
11:30 2.7 -1.5 73 0 0.3 1027.8
11:40 2.9 -1.3 73 270 0.3 0.8 1027.7
11:51 3 -1.2 73 0 0.8 1027.6
12:06 3.3 -0.9 73 270 0.3 0.8 1027.6
12:16 3.5 -0.8 73 270 0.3 0.8 1027.5
12:26 3.6 -0.7 73 315 0.3 0.8 1027.3
12:37 3.8 -0.5 73 0 0.8 1027.3
12:47 4.1 -0.3 73 0 0.8 1027.4
12:56 4.2 -0.2 73 0 0.8 1027.2
13:07 4.4 0 73 338 0.3 1.1 1027.2
13:17 4.5 0.1 73 303 0.3 0.8 1027.2
13:27 4.6 0.2 73 333 0.3 0.8 1027.2
13:37 4.7 0.3 73 0 0.3 0.8 1027
13:48 4.8 0.4 73 14 0.3 1.1 1027.1
13:58 4.9 0.5 73 319 0.3 1.1 1027
14:08 5 0.6 73 338 0.3 0.8 1027.1
14:18 5 0.6 73 341 0.3 0.8 1027.1
14:29 5.1 0.7 73 333 0.3 1.1 1026.9
14:39 5.1 0.7 73 325 0.3 0.8 1026.9
14:49 5.1 0.7 73 341 0.3 0.8 1027
15:00 5.2 0.8 73 306 0.3 0.8 1026.9
15:10 5.3 0.9 73 270 0.3 0.8 1026.9
15:20 5.2 0.8 73 315 0.3 1.4 1027
15:40 5.1 0.7 73 354 0.3 0.8 1027
15:50 5 0.6 73 315 0.3 0.8 1027
16:00 4.9 0.5 73 315 0.3 0.8 1027
16:10 4.7 0.3 73 315 0.3 0.8 1027.1
16:21 4.5 0.1 73 270 0.3 0.8 1027.1
16:31 4.4 0 73 295 0.8 1.7 1027.1
16:41 4.2 -0.2 73 0 0.8 1027.2
16:51 3.8 -0.5 73 270 0.3 0.8 1027.2
17:06 2.9 -1.3 73 270 0.3 1.1 1027.2
17:16 2.3 -1.8 73 270 0.3 1.1 1027.2
17:26 1.9 -2.1 73 0 0.8 1027.2
17:36 1.5 -2.5 73 270 0.3 0.8 1027.1
17:47 1.1 -2.8 73 270 0.3 0.8 1027.1
17:56 0.8 -3.1 73 270 0.3 0.8 1027.1
18:07 0.6 -3.3 73 321 0.3 0.8 1027.3
18:12 0.6 -3.3 73 270 0.3 0.8 1027.3
18:27 0.3 -3.5 73 270 0.3 0.8 1027.4
18:37 0.1 -3.7 73 270 0.3 0.8 1027.4
18:47 0 -3.8 73 270 0.3 0.8 1027.4
18:58 -0.2 -4 73 306 0.3 0.8 1027.4
19:08 -0.3 -4.1 73 270 0.3 0.8 1027.5
19:18 -0.5 -4.1 74 0 0.3 1027.5
19:29 -0.6 -4.2 74 309 0.3 0.8 1027.4
19:39 -0.8 -4.4 74 270 0.3 1.1 1027.4
19:48 -0.8 -4.4 74 302 0.3 0.8 1027.4
19:59 -1 -4.6 74 315 0.3 0.8 1027.4
20:09 -1 -4.6 74 270 0.3 0.8 1027.5
20:19 -1.1 -4.7 74 309 0.3 0.8 1027.5
20:29 -1.2 -4.8 74 0 0.8 1027.6
20:40 -1.3 -4.9 74 270 0.3 0.8 1027.5
20:50 -1.4 -5 74 270 0.3 0.8 1027.5
20:59 -1.4 -5 74 270 0.3 0.8 1027.6
21:09 -1.4 -5 74 0 0.8 1027.6
21:20 -1.5 -5.1 74 270 0.3 0.8 1027.4
21:30 -1.5 -5.1 74 315 0.3 0.8 1027.4
21:40 -1.6 -5.2 74 309 0.3 0.8 1027.4
21:50 -1.6 -5.2 74 303 0.3 0.8 1027.2
21:56 -1.6 -5.2 74 0 0.8 1027.2
22:11 -1.7 -5.3 74 0 0.8 1027
22:21 -1.8 -5.4 74 307 0.3 0.8 1026.9
22:27 -1.8 -5.4 74 330 0.3 0.8 1026.9
22:42 -1.9 -5.5 74 270 0.3 0.8 1026.8
22:52 -1.9 -5.5 74 270 0.3 1.1 1026.8
23:01 -1.9 -5.5 74 270 0.3 0.8 1026.8
23:13 -2 -5.6 74 0 0.8 1026.6
23:28 -2.1 -5.7 74 303 0.3 0.8 1026.5
23:38 -2.1 -5.7 74 0 0.3 1026.3
23:48 -2.1 -5.7 74 0 0.8 1026.1
23:58 -2.1 -5.7 74 308 0.3 0.8 1026.1

DAY STATISTIC

2020-01-16
TEMPERATURE
AVERAGE
0.3
HIGH
5.3
15:10
LOW
-3.4
04:26
PRESSURE
AVERAGE
1026.6
HIGH
1028.1
10:34
LOW
1023.9
00:00
DEWPOINT
AVERAGE
-3.5
HIGH
0.9
15:10
LOW
-6.9
04:26
HUMIDITY
AVERAGE
74
HIGH
74
00:36
LOW
73
00:00
WIND SPEED
AVERAGE
0.2
HIGH
0.8
16:31
WIND GUST
AVERAGE
0.8
HIGH
1.7
16:31
WIND DIRECTION
PREVAILING
W
31.9%
N
5.1
NE
0.0
E
1.4
SE
0.7
S
0.0
SW
0.0
W
31.9
NW
28.3
TEMPERATURE (°C)
LOW
-3.4
HIGH
5.3
AVERAGE
0.3
PRESSURE (hpa)
LOW
1023.9
HIGH
1028.1
AVERAGE
1026.6
DEVICE